createdAt,value
2018-02-14T00:03:13.348Z,36.63
2018-02-14T00:05:40.951Z,38.67
2018-02-14T00:08:08.496Z,37.00
2018-02-14T00:10:36.113Z,37.23
2018-02-14T00:13:03.690Z,35.93
2018-02-14T00:15:31.236Z,41.03
2018-02-14T00:17:58.836Z,30.00
2018-02-14T00:20:26.382Z,54.87
2018-02-14T00:22:53.954Z,36.63
2018-02-14T00:25:21.503Z,43.10
2018-02-14T00:27:49.073Z,33.00
2018-02-14T00:30:16.608Z,42.57
2018-02-14T00:32:44.206Z,30.40
2018-02-14T00:35:11.750Z,40.53
2018-02-14T00:37:39.300Z,37.63
2018-02-14T00:40:07.052Z,34.90
2018-02-14T00:42:34.602Z,42.37
2018-02-14T00:45:02.186Z,42.57
2018-02-14T00:47:29.872Z,52.17
2018-02-14T00:49:58.216Z,45.47
2018-02-14T00:52:25.834Z,39.20
2018-02-14T00:54:53.423Z,40.47
2018-02-14T00:57:20.981Z,32.20
2018-02-14T00:59:48.563Z,38.10
2018-02-14T01:02:16.114Z,34.27
2018-02-14T01:04:43.676Z,32.57
2018-02-14T01:07:11.309Z,29.70
2018-02-14T01:09:38.851Z,34.80
2018-02-14T01:12:06.634Z,31.50
2018-02-14T01:14:34.179Z,33.47
2018-02-14T01:17:01.716Z,36.87
2018-02-14T01:19:29.317Z,34.13
2018-02-14T01:21:56.869Z,33.30
2018-02-14T01:24:24.833Z,33.03
2018-02-14T01:26:52.390Z,35.33
2018-02-14T01:29:19.973Z,36.27
2018-02-14T01:31:47.516Z,34.17
2018-02-14T01:34:15.090Z,33.97
2018-02-14T01:36:42.630Z,38.77
2018-02-14T01:39:10.182Z,31.70
2018-02-14T01:41:37.756Z,34.20
2018-02-14T01:44:05.316Z,31.27
2018-02-14T01:46:32.909Z,31.80
2018-02-14T01:49:00.456Z,29.50
2018-02-14T01:51:28.047Z,37.00
2018-02-14T01:53:55.859Z,35.17
2018-02-14T01:56:23.441Z,29.90
2018-02-14T01:58:50.993Z,36.43
2018-02-14T02:01:18.585Z,36.37
2018-02-14T02:03:46.243Z,31.93
2018-02-14T02:06:13.795Z,45.57
2018-02-14T02:08:41.675Z,46.13
2018-02-14T02:11:09.224Z,40.80
2018-02-14T02:13:36.951Z,34.53
2018-02-14T02:16:04.489Z,33.93
2018-02-14T02:18:32.177Z,36.57
2018-02-14T02:20:59.750Z,38.00
2018-02-14T02:23:27.337Z,35.23
2018-02-14T02:25:54.888Z,38.87
2018-02-14T02:28:22.453Z,43.70
2018-02-14T02:30:50.044Z,32.80
2018-02-14T02:33:18.347Z,36.93
2018-02-14T02:35:45.938Z,35.70
2018-02-14T02:38:13.500Z,33.57
2018-02-14T02:40:42.113Z,37.10
2018-02-14T02:43:10.422Z,30.57
2018-02-14T02:45:38.001Z,41.00
2018-02-14T02:48:05.554Z,35.50
2018-02-14T02:50:33.113Z,35.03
2018-02-14T02:53:00.683Z,31.60
2018-02-14T02:55:28.235Z,31.37
2018-02-14T02:57:55.827Z,39.13
2018-02-14T03:00:23.387Z,36.30
2018-02-14T03:02:50.973Z,34.40
2018-02-14T03:05:18.657Z,45.70
2018-02-14T03:07:46.243Z,34.20
2018-02-14T03:10:13.793Z,30.83
2018-02-14T03:12:41.397Z,35.53
2018-02-14T03:15:08.940Z,34.63
2018-02-14T03:17:37.380Z,34.53
2018-02-14T03:20:04.912Z,35.93
2018-02-14T03:22:33.232Z,49.07
2018-02-14T03:25:00.810Z,36.13
2018-02-14T03:27:29.128Z,34.47
2018-02-14T03:29:56.707Z,34.40
2018-02-14T03:32:24.340Z,35.77
2018-02-14T03:34:52.675Z,39.10
2018-02-14T03:37:20.228Z,38.13
2018-02-14T03:39:47.813Z,42.07
2018-02-14T03:42:16.864Z,39.13
2018-02-14T03:44:44.648Z,40.73
2018-02-14T03:47:12.228Z,40.97
2018-02-14T03:49:39.828Z,35.67
2018-02-14T03:52:07.525Z,38.23
2018-02-14T03:54:35.104Z,37.83
2018-02-14T03:57:02.708Z,36.23
2018-02-14T03:59:30.364Z,35.93
2018-02-14T04:01:57.950Z,41.10
2018-02-14T04:04:25.509Z,35.47
2018-02-14T04:06:53.045Z,43.60
2018-02-14T04:09:20.661Z,37.70
2018-02-14T04:11:48.397Z,39.10
2018-02-14T04:14:15.985Z,34.13
2018-02-14T04:16:43.531Z,38.37
2018-02-14T04:19:11.117Z,35.97
2018-02-14T04:21:38.661Z,39.80
2018-02-14T04:24:06.283Z,38.20
2018-02-14T04:26:33.882Z,38.73
2018-02-14T04:29:01.443Z,38.77
2018-02-14T04:31:29.804Z,40.50
2018-02-14T04:33:57.358Z,35.73
2018-02-14T04:36:24.924Z,39.73
2018-02-14T04:38:52.488Z,38.10
2018-02-14T04:41:20.105Z,45.47
2018-02-14T04:43:48.433Z,38.70
2018-02-14T04:46:16.025Z,47.50
2018-02-14T04:48:44.337Z,34.43
2018-02-14T04:51:11.903Z,33.50
2018-02-14T04:53:39.468Z,41.60
2018-02-14T04:56:07.225Z,44.67
2018-02-14T04:58:34.811Z,44.67
2018-02-14T05:01:02.353Z,37.47
2018-02-14T05:03:29.950Z,36.67
2018-02-14T05:05:57.500Z,41.10
2018-02-14T05:08:25.807Z,39.57
2018-02-14T05:10:54.119Z,36.43
2018-02-14T05:13:21.676Z,38.43
2018-02-14T05:15:49.303Z,38.50
2018-02-14T05:18:16.837Z,43.33
2018-02-14T05:20:45.199Z,39.73
2018-02-14T05:23:12.754Z,44.97
2018-02-14T05:25:40.468Z,51.90
2018-02-14T05:28:08.039Z,43.07
2018-02-14T05:30:35.622Z,48.70
2018-02-14T05:33:03.584Z,42.60
2018-02-14T05:35:31.313Z,39.33
2018-02-14T05:37:59.743Z,44.67
2018-02-14T05:40:27.295Z,44.73
2018-02-14T05:42:54.876Z,40.97
2018-02-14T05:45:22.515Z,50.10
2018-02-14T05:47:50.117Z,42.97
2018-02-14T05:50:17.673Z,46.53
2018-02-14T05:52:45.400Z,48.13
2018-02-14T05:55:12.954Z,41.80
2018-02-14T05:57:40.542Z,45.60
2018-02-14T06:00:08.093Z,53.27
2018-02-14T06:02:35.637Z,47.43
2018-02-14T06:05:03.215Z,50.50
2018-02-14T06:07:30.757Z,46.37
2018-02-14T06:09:58.332Z,51.63
2018-02-14T06:12:25.894Z,39.50
2018-02-14T06:14:53.476Z,53.67
2018-02-14T06:17:21.125Z,42.13
2018-02-14T06:19:48.717Z,40.30
2018-02-14T06:22:16.307Z,38.67
2018-02-14T06:24:43.867Z,43.67
2018-02-14T06:27:11.440Z,41.07
2018-02-14T06:29:38.979Z,42.67
2018-02-14T06:32:06.582Z,49.83
2018-02-14T06:34:34.132Z,60.33
2018-02-14T06:37:01.713Z,54.60
2018-02-14T06:39:29.273Z,46.93
2018-02-14T06:41:56.866Z,50.77
2018-02-14T06:44:24.416Z,38.20
2018-02-14T06:46:52.780Z,51.60
2018-02-14T06:49:20.344Z,46.40
2018-02-14T06:51:48.817Z,53.93
2018-02-14T06:54:17.174Z,48.60
2018-02-14T06:56:44.723Z,48.80
2018-02-14T06:59:12.303Z,58.80
2018-02-14T07:01:39.852Z,52.70
2018-02-14T07:04:07.434Z,96.17
2018-02-14T07:06:35.109Z,52.17
2018-02-14T07:09:02.699Z,48.37
2018-02-14T07:11:30.244Z,68.77
2018-02-14T07:13:57.889Z,61.23
2018-02-14T07:16:26.191Z,70.13
2018-02-14T07:18:53.741Z,63.67
2018-02-14T07:21:21.333Z,58.97
2018-02-14T07:23:48.887Z,50.73
2018-02-14T07:26:16.500Z,50.27
2018-02-14T07:28:44.809Z,64.60
2018-02-14T07:31:12.419Z,47.87
2018-02-14T07:33:39.962Z,56.20
2018-02-14T07:36:07.513Z,60.97
2018-02-14T07:38:35.091Z,47.70
2018-02-14T07:41:03.202Z,62.20
2018-02-14T07:43:30.952Z,54.17
2018-02-14T07:45:59.270Z,54.30
2018-02-14T07:48:26.841Z,57.07
2018-02-14T07:50:54.390Z,57.50
2018-02-14T07:53:21.968Z,48.80
2018-02-14T07:55:49.525Z,61.57
2018-02-14T07:58:17.260Z,60.90
2018-02-14T08:00:44.848Z,52.93
2018-02-14T08:03:12.586Z,52.33
2018-02-14T08:05:40.166Z,48.17
2018-02-14T08:08:08.529Z,50.83
2018-02-14T08:10:36.108Z,49.13
2018-02-14T08:13:03.652Z,60.50
2018-02-14T08:15:31.229Z,51.57
2018-02-14T08:17:58.767Z,71.83
2018-02-14T08:20:26.358Z,53.00
2018-02-14T08:22:53.900Z,49.87
2018-02-14T08:25:21.434Z,48.00
2018-02-14T08:27:49.021Z,50.40
2018-02-14T08:30:16.581Z,63.97
2018-02-14T08:32:44.168Z,70.03
2018-02-14T08:35:11.714Z,62.50
2018-02-14T08:37:39.439Z,72.73
2018-02-14T08:40:06.996Z,54.97
2018-02-14T08:42:34.561Z,72.90
2018-02-14T08:45:02.993Z,75.10
2018-02-14T08:47:30.530Z,53.80
2018-02-14T08:49:58.231Z,53.20
2018-02-14T08:52:26.543Z,62.50
2018-02-14T08:54:54.196Z,58.33
2018-02-14T08:57:21.736Z,60.37
2018-02-14T08:59:49.417Z,46.73
2018-02-14T09:02:16.965Z,48.97
2018-02-14T09:04:44.558Z,52.87
2018-02-14T09:07:12.099Z,55.23
2018-02-14T09:09:39.659Z,62.77
2018-02-14T09:12:07.239Z,59.80
2018-02-14T09:14:34.783Z,58.40
2018-02-14T09:17:02.388Z,52.37
2018-02-14T09:19:29.936Z,44.67
2018-02-14T09:21:57.517Z,47.03
2018-02-14T09:24:25.127Z,64.20
2018-02-14T09:26:52.752Z,59.30
2018-02-14T09:29:21.058Z,61.13
2018-02-14T09:31:48.661Z,49.90
2018-02-14T09:34:17.027Z,66.77
2018-02-14T09:36:46.081Z,64.10
2018-02-14T09:39:13.652Z,63.63
2018-02-14T09:41:41.200Z,56.10
2018-02-14T09:44:08.817Z,54.50
2018-02-14T09:46:36.460Z,55.00
2018-02-14T09:49:03.988Z,63.20
2018-02-14T09:51:31.559Z,46.70
2018-02-14T09:53:59.256Z,49.67
2018-02-14T09:56:26.833Z,48.50
2018-02-14T09:58:54.376Z,53.37
2018-02-14T10:01:22.728Z,79.63
2018-02-14T10:03:50.264Z,74.53
2018-02-14T10:06:18.173Z,80.53
2018-02-14T10:08:45.720Z,82.83
2018-02-14T10:11:13.266Z,74.07
2018-02-14T10:13:40.977Z,61.17
2018-02-14T10:16:09.281Z,55.10
2018-02-14T10:18:36.857Z,62.30
2018-02-14T10:21:04.413Z,58.47
2018-02-14T10:23:33.190Z,59.10
2018-02-14T10:26:00.800Z,50.40
2018-02-14T10:28:28.374Z,41.80
2018-02-14T10:30:56.684Z,50.63
2018-02-14T10:33:24.275Z,52.83
2018-02-14T10:35:51.876Z,45.80
2018-02-14T10:38:19.425Z,49.90
2018-02-14T10:40:47.786Z,68.10
2018-02-14T10:43:15.376Z,48.07
2018-02-14T10:45:43.756Z,51.97
2018-02-14T10:48:11.297Z,53.00
2018-02-14T10:50:39.649Z,44.37
2018-02-14T10:53:07.382Z,47.17
2018-02-14T10:55:34.978Z,47.33
2018-02-14T10:58:02.532Z,53.57
2018-02-14T11:00:35.769Z,45.93
2018-02-14T11:03:09.820Z,48.23
2018-02-14T11:05:37.409Z,45.57
2018-02-14T11:08:04.957Z,43.43
2018-02-14T11:10:32.500Z,50.47
2018-02-14T11:13:00.084Z,53.17
2018-02-14T11:15:27.633Z,50.23
2018-02-14T11:17:55.262Z,66.30
2018-02-14T11:20:22.806Z,37.77
2018-02-14T11:22:52.455Z,44.30
2018-02-14T11:25:20.065Z,37.00
2018-02-14T11:27:47.599Z,44.63
2018-02-14T11:30:16.112Z,50.70
2018-02-14T11:32:44.429Z,42.37
2018-02-14T11:35:12.006Z,37.00
2018-02-14T11:37:39.539Z,32.83
2018-02-14T11:40:07.293Z,39.13
2018-02-14T11:42:34.828Z,40.37
2018-02-14T11:45:02.408Z,39.53
2018-02-14T11:47:29.959Z,32.57
2018-02-14T11:49:57.549Z,42.80
2018-02-14T11:52:25.085Z,39.27
2018-02-14T11:54:52.636Z,39.90
2018-02-14T11:57:20.228Z,39.90
2018-02-14T11:59:47.782Z,35.73
2018-02-14T12:02:15.443Z,39.80
2018-02-14T12:04:43.004Z,45.80
2018-02-14T12:07:10.586Z,39.00
2018-02-14T12:09:38.194Z,37.27
2018-02-14T12:12:06.663Z,30.17
2018-02-14T12:14:34.216Z,42.63
2018-02-14T12:17:02.559Z,38.17
2018-02-14T12:19:30.104Z,30.93
2018-02-14T12:21:57.657Z,36.07
2018-02-14T12:24:26.148Z,22.00
2018-02-14T12:26:53.699Z,32.70
2018-02-14T12:29:21.285Z,38.00
2018-02-14T12:31:48.840Z,23.77
2018-02-14T12:34:16.414Z,25.17
2018-02-14T12:36:43.969Z,35.73
2018-02-14T12:39:13.546Z,27.53
2018-02-14T12:41:41.261Z,39.07
2018-02-14T12:44:09.566Z,28.70
2018-02-14T12:46:37.140Z,30.07
2018-02-14T12:49:04.702Z,42.30
2018-02-14T12:51:32.293Z,35.27
2018-02-14T12:53:59.830Z,32.00
2018-02-14T12:56:27.438Z,24.03
2018-02-14T12:58:55.748Z,26.50
2018-02-14T13:01:23.328Z,39.13
2018-02-14T13:03:50.869Z,33.97
2018-02-14T13:06:18.441Z,26.53
2018-02-14T13:08:45.974Z,27.43
2018-02-14T13:11:13.504Z,28.97
2018-02-14T13:13:41.067Z,27.80
2018-02-14T13:16:09.390Z,27.67
2018-02-14T13:18:37.222Z,29.93
2018-02-14T13:21:04.787Z,22.60
2018-02-14T13:23:32.369Z,29.63
2018-02-14T13:25:59.922Z,24.60
2018-02-14T13:28:27.537Z,32.97
2018-02-14T13:30:55.085Z,25.50
2018-02-14T13:33:22.632Z,27.67
2018-02-14T13:35:50.416Z,25.83
2018-02-14T13:38:18.728Z,19.97
2018-02-14T13:40:46.307Z,18.63
2018-02-14T13:43:13.874Z,23.73
2018-02-14T13:45:41.465Z,15.87
2018-02-14T13:48:09.009Z,13.67
2018-02-14T13:50:36.549Z,31.43
2018-02-14T13:53:04.129Z,9.40
2018-02-14T13:55:31.684Z,13.33
2018-02-14T13:57:59.385Z,17.30
2018-02-14T14:00:27.868Z,19.80
2018-02-14T14:02:56.221Z,13.90
2018-02-14T14:05:24.528Z,11.50
2018-02-14T14:07:52.114Z,13.60
2018-02-14T14:10:19.665Z,11.93
2018-02-14T14:12:47.200Z,16.30
2018-02-14T14:15:15.529Z,17.67
2018-02-14T14:17:43.063Z,13.33
2018-02-14T14:20:10.637Z,21.53
2018-02-14T14:22:38.388Z,20.00
2018-02-14T14:25:05.945Z,9.50
2018-02-14T14:27:33.717Z,18.67
2018-02-14T14:30:01.294Z,8.73
2018-02-14T14:32:28.845Z,20.37
2018-02-14T14:34:56.404Z,11.23
2018-02-14T14:37:23.985Z,14.37
2018-02-14T14:39:51.526Z,21.73
2018-02-14T14:42:19.088Z,10.50
2018-02-14T14:44:46.621Z,11.23
2018-02-14T14:47:14.449Z,8.50
2018-02-14T14:49:41.995Z,15.57
2018-02-14T14:52:09.543Z,12.30
2018-02-14T14:54:37.176Z,13.77
2018-02-14T14:57:04.717Z,18.13
2018-02-14T14:59:32.322Z,16.90
2018-02-14T15:01:59.853Z,14.03
2018-02-14T15:04:27.433Z,17.73
2018-02-14T15:06:55.861Z,11.70
2018-02-14T15:09:23.448Z,19.63
2018-02-14T15:11:50.990Z,21.37
2018-02-14T15:14:18.548Z,15.63
2018-02-14T15:16:46.958Z,18.13
2018-02-14T15:19:14.514Z,23.30
2018-02-14T15:21:42.070Z,18.83
2018-02-14T15:24:09.596Z,19.60
2018-02-14T15:26:38.423Z,21.33
2018-02-14T15:29:05.981Z,17.93
2018-02-14T15:31:33.539Z,15.60
2018-02-14T15:34:01.152Z,17.33
2018-02-14T15:36:28.696Z,16.27
2018-02-14T15:38:56.265Z,22.23
2018-02-14T15:41:25.321Z,19.73
2018-02-14T15:43:52.899Z,12.90
2018-02-14T15:46:21.518Z,23.60
2018-02-14T15:48:49.085Z,26.20
2018-02-14T15:51:17.571Z,18.50
2018-02-14T15:53:45.112Z,16.40
2018-02-14T15:56:12.887Z,20.63
2018-02-14T15:58:41.312Z,18.80
2018-02-14T16:01:08.921Z,13.20
2018-02-14T16:03:36.463Z,19.77
2018-02-14T16:06:04.065Z,23.47
2018-02-14T16:08:31.613Z,27.27
2018-02-14T16:10:59.936Z,18.93
2018-02-14T16:13:27.513Z,20.53
2018-02-14T16:15:55.057Z,20.50
2018-02-14T16:18:22.628Z,18.23
2018-02-14T16:20:50.320Z,32.33
2018-02-14T16:23:18.672Z,30.63
2018-02-14T16:25:46.218Z,24.70
2018-02-14T16:28:13.853Z,21.50
2018-02-14T16:30:41.661Z,23.80
2018-02-14T16:33:09.810Z,29.57
2018-02-14T16:35:37.373Z,32.73
2018-02-14T16:38:04.941Z,33.77
2018-02-14T16:40:32.517Z,30.27
2018-02-14T16:43:00.064Z,30.23
2018-02-14T16:45:27.709Z,30.77
2018-02-14T16:47:55.432Z,37.97
2018-02-14T16:50:23.210Z,26.47
2018-02-14T16:52:50.772Z,28.47
2018-02-14T16:55:18.332Z,24.50
2018-02-14T16:57:45.934Z,26.80
2018-02-14T17:00:13.496Z,28.70
2018-02-14T17:02:41.079Z,33.53
2018-02-14T17:05:08.619Z,40.43
2018-02-14T17:07:36.262Z,26.87
2018-02-14T17:10:03.828Z,44.67
2018-02-14T17:12:31.441Z,30.97
2018-02-14T17:14:58.988Z,33.07
2018-02-14T17:17:26.544Z,31.50
2018-02-14T17:19:54.888Z,26.43
2018-02-14T17:22:22.466Z,33.07
2018-02-14T17:24:50.828Z,36.60
2018-02-14T17:27:18.398Z,35.37
2018-02-14T17:29:45.993Z,38.50
2018-02-14T17:32:13.543Z,40.57
2018-02-14T17:34:41.863Z,36.27
2018-02-14T17:37:09.484Z,37.97
2018-02-14T17:39:37.821Z,36.73
2018-02-14T17:42:05.568Z,29.70
2018-02-14T17:44:33.117Z,62.03
2018-02-14T17:47:00.707Z,27.00
2018-02-14T17:49:29.059Z,35.90
2018-02-14T17:51:56.652Z,35.63
2018-02-14T17:54:24.184Z,34.57
2018-02-14T17:56:51.723Z,32.83
2018-02-14T17:59:19.450Z,35.20
2018-02-14T18:01:46.972Z,34.93
2018-02-14T18:04:14.549Z,29.33
2018-02-14T18:06:42.157Z,33.53
2018-02-14T18:09:09.743Z,31.73
2018-02-14T18:11:37.286Z,31.83
2018-02-14T18:14:04.859Z,34.23
2018-02-14T18:16:32.424Z,37.80
2018-02-14T18:19:00.005Z,36.53
2018-02-14T18:21:27.911Z,37.53
2018-02-14T18:23:55.490Z,33.87
2018-02-14T18:26:23.164Z,49.83
2018-02-14T18:28:50.814Z,31.40
2018-02-14T18:31:18.421Z,35.83
2018-02-14T18:33:45.969Z,44.83
2018-02-14T18:36:13.573Z,36.80
2018-02-14T18:38:41.121Z,37.43
2018-02-14T18:41:09.342Z,46.20
2018-02-14T18:43:36.890Z,34.50
2018-02-14T18:46:04.550Z,38.20
2018-02-14T18:48:32.135Z,45.03
2018-02-14T18:50:59.702Z,44.00
2018-02-14T18:53:27.278Z,32.10
2018-02-14T18:55:54.836Z,39.80
2018-02-14T18:58:22.407Z,39.73
2018-02-14T19:00:49.957Z,36.00
2018-02-14T19:03:17.529Z,34.37
2018-02-14T19:05:45.077Z,41.17
2018-02-14T19:08:12.620Z,36.77
2018-02-14T19:10:41.991Z,43.50
2018-02-14T19:13:09.535Z,38.23
2018-02-14T19:15:37.218Z,42.50
2018-02-14T19:18:04.762Z,49.30
2018-02-14T19:20:32.357Z,47.37
2018-02-14T19:22:59.904Z,46.77
2018-02-14T19:25:27.576Z,52.17
2018-02-14T19:27:55.125Z,97.23
2018-02-14T19:30:22.731Z,50.83
2018-02-14T19:32:51.058Z,55.97
2018-02-14T19:35:18.625Z,61.93
2018-02-14T19:37:46.213Z,62.30
2018-02-14T19:40:13.741Z,62.40
2018-02-14T19:42:41.423Z,59.23
2018-02-14T19:45:08.970Z,45.60
2018-02-14T19:47:36.555Z,55.50
2018-02-14T19:50:04.103Z,68.13
2018-02-14T19:52:31.686Z,59.87
2018-02-14T19:55:00.018Z,69.67
2018-02-14T19:57:27.626Z,57.03
2018-02-14T19:59:55.248Z,69.83
2018-02-14T20:02:22.916Z,56.47
2018-02-14T20:04:51.301Z,56.77
2018-02-14T20:07:19.232Z,62.23
2018-02-14T20:09:46.973Z,66.80
2018-02-14T20:12:14.518Z,86.60
2018-02-14T20:14:42.096Z,76.50
2018-02-14T20:17:09.650Z,64.20
2018-02-14T20:19:37.365Z,88.53
2018-02-14T20:22:04.934Z,62.27
2018-02-14T20:24:32.477Z,68.37
2018-02-14T20:27:00.125Z,64.27
2018-02-14T20:29:27.658Z,59.53
2018-02-14T20:31:56.018Z,57.20
2018-02-14T20:34:23.554Z,70.53
2018-02-14T20:36:51.172Z,67.33
2018-02-14T20:39:18.717Z,55.20
2018-02-14T20:41:46.246Z,66.13
2018-02-14T20:44:13.829Z,64.70
2018-02-14T20:46:42.208Z,73.63
2018-02-14T20:49:09.781Z,70.13
2018-02-14T20:51:37.370Z,67.90
2018-02-14T20:54:05.593Z,62.40
2018-02-14T20:56:33.246Z,71.80
2018-02-14T20:59:00.829Z,71.90
2018-02-14T21:01:28.389Z,69.07
2018-02-14T21:03:56.292Z,58.60
2018-02-14T21:06:23.854Z,78.77
2018-02-14T21:08:51.421Z,64.50
2018-02-14T21:11:19.001Z,73.00
2018-02-14T21:13:46.532Z,62.10
2018-02-14T21:16:14.122Z,60.93
2018-02-14T21:18:42.444Z,66.97
2018-02-14T21:21:10.036Z,67.93
2018-02-14T21:23:37.589Z,76.57
2018-02-14T21:26:05.201Z,67.37
2018-02-14T21:28:32.753Z,60.63
2018-02-14T21:31:01.069Z,59.67
2018-02-14T21:33:28.659Z,61.37
2018-02-14T21:35:56.228Z,59.63
2018-02-14T21:38:23.808Z,60.90
2018-02-14T21:40:52.123Z,55.03
2018-02-14T21:43:19.684Z,62.13
2018-02-14T21:45:47.246Z,59.80
2018-02-14T21:48:14.805Z,52.00
2018-02-14T21:50:43.104Z,60.33
2018-02-14T21:53:12.600Z,56.70
2018-02-14T21:55:40.178Z,58.73
2018-02-14T21:58:07.811Z,64.43
2018-02-14T22:00:35.358Z,66.30
2018-02-14T22:03:03.386Z,65.70
2018-02-14T22:05:30.943Z,64.50
2018-02-14T22:07:59.340Z,68.73
2018-02-14T22:10:26.900Z,57.83
2018-02-14T22:12:55.389Z,66.13
2018-02-14T22:15:22.943Z,62.40
2018-02-14T22:17:50.555Z,68.67
2018-02-14T22:20:18.101Z,54.37
2018-02-14T22:22:45.657Z,61.80
2018-02-14T22:25:13.306Z,73.87
2018-02-14T22:27:40.842Z,55.33
2018-02-14T22:30:08.437Z,64.80
2018-02-14T22:32:36.188Z,72.40
2018-02-14T22:35:03.747Z,79.53
2018-02-14T22:37:31.417Z,57.10
2018-02-14T22:39:58.967Z,66.43
2018-02-14T22:42:26.611Z,71.43
2018-02-14T22:44:54.188Z,65.43
2018-02-14T22:47:21.785Z,56.30
2018-02-14T22:49:49.349Z,75.27
2018-02-14T22:52:16.914Z,62.87
2018-02-14T22:54:44.493Z,69.13
2018-02-14T22:57:12.089Z,73.80
2018-02-14T22:59:39.681Z,58.17
2018-02-14T23:02:07.228Z,65.10
2018-02-14T23:04:34.858Z,55.90
2018-02-14T23:07:02.436Z,68.30
2018-02-14T23:09:29.985Z,74.60
2018-02-14T23:11:57.601Z,70.20
2018-02-14T23:14:26.066Z,72.60
2018-02-14T23:16:53.665Z,69.67
2018-02-14T23:19:21.277Z,69.53
2018-02-14T23:21:48.861Z,67.30
2018-02-14T23:24:16.420Z,75.20
2018-02-14T23:26:44.036Z,74.90
2018-02-14T23:29:11.593Z,52.93
2018-02-14T23:31:39.195Z,62.13
2018-02-14T23:34:07.562Z,70.73
2018-02-14T23:36:35.600Z,63.97
2018-02-14T23:39:03.174Z,71.07
2018-02-14T23:41:30.731Z,58.00
2018-02-14T23:43:58.322Z,62.80
2018-02-14T23:46:25.865Z,72.27
2018-02-14T23:48:53.467Z,76.87
2018-02-14T23:51:21.777Z,59.83
2018-02-14T23:53:49.540Z,72.53
2018-02-14T23:56:17.164Z,63.23
2018-02-14T23:58:45.519Z,59.37
